Hoback Junction, Wyoming
Current Conditions -  °F | °C
As of 1:55 AM on Wednesday 28 Jan 2015 (Local Time) from KJAC Reporting Station
Overcast Overcast  
Wind Chill: 26°   Ceiling: 1800
Heat Index: 32°   Visibility: 10mi
Dew Point: 32°   Wind: 6mph
Humidity: 100%   Direction: 190°S
Pressure: 30.11"   Gusts: NA
Location:  43.4143°N, 110.582°W
Report Text: KJAC 280855Z AUTO 19005KT 10SM FEW008 BKN018 OVC032 00/00 A3011 RMK AO1 57007
Loading
Personal Weather Stations






























Interactive Weather Map New forecast layout! Learn more

10-Day Weather Forecast

Advertisements
Track Severe Weather on mobile